sensor_id;sensor_type;location;lat;lon;timestamp;P1;durP1;ratioP1;P2;durP2;ratioP2
6483;SDS011;3275;52.376;9.694;2024-03-02T00:00:30;16.27;;;7.50;;
6483;SDS011;3275;52.376;9.694;2024-03-02T00:02:56;15.47;;;7.93;;
6483;SDS011;3275;52.376;9.694;2024-03-02T00:05:23;12.30;;;7.97;;
6483;SDS011;3275;52.376;9.694;2024-03-02T00:07:52;17.37;;;8.83;;
6483;SDS011;3275;52.376;9.694;2024-03-02T00:10:22;11.97;;;7.90;;
6483;SDS011;3275;52.376;9.694;2024-03-02T00:12:54;14.30;;;7.50;;
6483;SDS011;3275;52.376;9.694;2024-03-02T00:15:28;16.97;;;8.17;;
6483;SDS011;3275;52.376;9.694;2024-03-02T00:18:07;13.27;;;7.00;;
6483;SDS011;3275;52.376;9.694;2024-03-02T00:20:36;14.13;;;8.50;;
6483;SDS011;3275;52.376;9.694;2024-03-02T00:23:03;12.13;;;7.50;;
6483;SDS011;3275;52.376;9.694;2024-03-02T00:25:37;16.10;;;7.90;;
6483;SDS011;3275;52.376;9.694;2024-03-02T00:28:05;12.27;;;8.07;;
6483;SDS011;3275;52.376;9.694;2024-03-02T00:30:45;13.83;;;8.50;;
6483;SDS011;3275;52.376;9.694;2024-03-02T00:33:18;15.60;;;9.57;;
6483;SDS011;3275;52.376;9.694;2024-03-02T00:35:45;17.07;;;8.30;;
6483;SDS011;3275;52.376;9.694;2024-03-02T00:38:12;14.90;;;9.20;;
6483;SDS011;3275;52.376;9.694;2024-03-02T00:40:41;14.30;;;8.53;;
6483;SDS011;3275;52.376;9.694;2024-03-02T00:43:10;15.47;;;9.33;;
6483;SDS011;3275;52.376;9.694;2024-03-02T00:45:57;15.77;;;8.67;;
6483;SDS011;3275;52.376;9.694;2024-03-02T00:48:24;16.77;;;10.10;;
6483;SDS011;3275;52.376;9.694;2024-03-02T00:50:51;15.73;;;9.37;;
6483;SDS011;3275;52.376;9.694;2024-03-02T00:53:18;15.40;;;9.30;;
6483;SDS011;3275;52.376;9.694;2024-03-02T00:55:50;22.13;;;9.77;;
6483;SDS011;3275;52.376;9.694;2024-03-02T00:58:16;18.97;;;10.17;;
6483;SDS011;3275;52.376;9.694;2024-03-02T01:00:43;20.03;;;10.90;;
6483;SDS011;3275;52.376;9.694;2024-03-02T01:03:10;12.47;;;8.33;;
6483;SDS011;3275;52.376;9.694;2024-03-02T01:05:36;18.57;;;10.87;;
6483;SDS011;3275;52.376;9.694;2024-03-02T01:08:07;16.57;;;10.23;;
6483;SDS011;3275;52.376;9.694;2024-03-02T01:10:34;18.70;;;10.20;;
6483;SDS011;3275;52.376;9.694;2024-03-02T01:13:02;23.07;;;10.80;;
6483;SDS011;3275;52.376;9.694;2024-03-02T01:15:28;15.97;;;9.67;;
6483;SDS011;3275;52.376;9.694;2024-03-02T01:17:55;16.23;;;9.60;;
6483;SDS011;3275;52.376;9.694;2024-03-02T01:20:22;18.67;;;11.20;;
6483;SDS011;3275;52.376;9.694;2024-03-02T01:22:49;24.47;;;10.50;;
6483;SDS011;3275;52.376;9.694;2024-03-02T01:25:17;21.90;;;11.27;;
6483;SDS011;3275;52.376;9.694;2024-03-02T01:27:43;19.33;;;10.40;;
6483;SDS011;3275;52.376;9.694;2024-03-02T01:30:11;19.70;;;11.87;;
6483;SDS011;3275;52.376;9.694;2024-03-02T01:32:38;18.30;;;10.47;;
6483;SDS011;3275;52.376;9.694;2024-03-02T01:35:05;21.17;;;11.67;;
6483;SDS011;3275;52.376;9.694;2024-03-02T01:37:32;24.40;;;11.93;;
6483;SDS011;3275;52.376;9.694;2024-03-02T01:39:59;22.07;;;11.27;;
6483;SDS011;3275;52.376;9.694;2024-03-02T01:42:27;23.37;;;12.80;;
6483;SDS011;3275;52.376;9.694;2024-03-02T01:44:54;22.13;;;12.10;;
6483;SDS011;3275;52.376;9.694;2024-03-02T01:47:22;18.27;;;10.70;;
6483;SDS011;3275;52.376;9.694;2024-03-02T01:49:48;20.70;;;11.60;;
6483;SDS011;3275;52.376;9.694;2024-03-02T01:52:15;19.40;;;11.53;;
6483;SDS011;3275;52.376;9.694;2024-03-02T01:54:42;23.67;;;12.30;;
6483;SDS011;3275;52.376;9.694;2024-03-02T01:57:09;25.00;;;11.63;;
6483;SDS011;3275;52.376;9.694;2024-03-02T01:59:35;22.97;;;12.20;;
6483;SDS011;3275;52.376;9.694;2024-03-02T02:02:02;20.83;;;11.80;;
6483;SDS011;3275;52.376;9.694;2024-03-02T02:04:33;24.17;;;12.50;;
6483;SDS011;3275;52.376;9.694;2024-03-02T02:07:00;18.10;;;9.80;;
6483;SDS011;3275;52.376;9.694;2024-03-02T02:09:26;21.13;;;11.27;;
6483;SDS011;3275;52.376;9.694;2024-03-02T02:11:53;17.60;;;10.40;;
6483;SDS011;3275;52.376;9.694;2024-03-02T02:14:19;24.63;;;11.80;;
6483;SDS011;3275;52.376;9.694;2024-03-02T02:16:46;20.90;;;11.03;;
6483;SDS011;3275;52.376;9.694;2024-03-02T02:19:12;22.40;;;11.50;;
6483;SDS011;3275;52.376;9.694;2024-03-02T02:21:43;22.93;;;11.17;;
6483;SDS011;3275;52.376;9.694;2024-03-02T02:24:09;21.60;;;12.03;;
6483;SDS011;3275;52.376;9.694;2024-03-02T02:26:38;19.47;;;11.23;;
6483;SDS011;3275;52.376;9.694;2024-03-02T02:29:04;19.73;;;10.57;;
6483;SDS011;3275;52.376;9.694;2024-03-02T02:31:36;24.37;;;11.33;;
6483;SDS011;3275;52.376;9.694;2024-03-02T02:34:03;26.23;;;13.40;;
6483;SDS011;3275;52.376;9.694;2024-03-02T02:36:30;27.90;;;11.73;;
6483;SDS011;3275;52.376;9.694;2024-03-02T02:39:00;21.93;;;12.57;;
6483;SDS011;3275;52.376;9.694;2024-03-02T02:41:29;24.37;;;12.40;;
6483;SDS011;3275;52.376;9.694;2024-03-02T02:43:55;26.77;;;15.27;;
6483;SDS011;3275;52.376;9.694;2024-03-02T02:46:22;25.20;;;13.63;;
6483;SDS011;3275;52.376;9.694;2024-03-02T02:48:49;24.80;;;13.03;;
6483;SDS011;3275;52.376;9.694;2024-03-02T02:51:16;23.53;;;12.57;;
6483;SDS011;3275;52.376;9.694;2024-03-02T02:53:43;29.83;;;13.43;;
6483;SDS011;3275;52.376;9.694;2024-03-02T02:56:11;26.53;;;13.43;;
6483;SDS011;3275;52.376;9.694;2024-03-02T02:58:37;24.00;;;12.00;;
6483;SDS011;3275;52.376;9.694;2024-03-02T03:01:05;24.13;;;12.40;;
6483;SDS011;3275;52.376;9.694;2024-03-02T03:03:32;22.80;;;11.67;;
6483;SDS011;3275;52.376;9.694;2024-03-02T03:05:59;25.97;;;12.87;;
6483;SDS011;3275;52.376;9.694;2024-03-02T03:08:25;24.80;;;12.53;;
6483;SDS011;3275;52.376;9.694;2024-03-02T03:10:52;21.40;;;11.20;;
6483;SDS011;3275;52.376;9.694;2024-03-02T03:13:20;24.30;;;11.93;;
6483;SDS011;3275;52.376;9.694;2024-03-02T03:15:46;23.97;;;12.00;;
6483;SDS011;3275;52.376;9.694;2024-03-02T03:18:13;19.80;;;10.50;;
6483;SDS011;3275;52.376;9.694;2024-03-02T03:20:40;22.10;;;11.57;;
6483;SDS011;3275;52.376;9.694;2024-03-02T03:23:06;20.83;;;11.57;;
6483;SDS011;3275;52.376;9.694;2024-03-02T03:25:33;24.97;;;11.20;;
6483;SDS011;3275;52.376;9.694;2024-03-02T03:28:00;21.83;;;11.17;;
6483;SDS011;3275;52.376;9.694;2024-03-02T03:30:29;23.40;;;11.33;;
6483;SDS011;3275;52.376;9.694;2024-03-02T03:32:56;21.20;;;11.50;;
6483;SDS011;3275;52.376;9.694;2024-03-02T03:35:22;23.57;;;10.90;;
6483;SDS011;3275;52.376;9.694;2024-03-02T03:37:49;22.77;;;10.70;;
6483;SDS011;3275;52.376;9.694;2024-03-02T03:40:15;25.37;;;11.63;;
6483;SDS011;3275;52.376;9.694;2024-03-02T03:42:43;29.50;;;11.13;;
6483;SDS011;3275;52.376;9.694;2024-03-02T03:45:09;22.00;;;10.63;;
6483;SDS011;3275;52.376;9.694;2024-03-02T03:47:37;22.27;;;12.13;;
6483;SDS011;3275;52.376;9.694;2024-03-02T03:50:04;17.67;;;9.23;;
6483;SDS011;3275;52.376;9.694;2024-03-02T03:52:32;20.70;;;10.77;;
6483;SDS011;3275;52.376;9.694;2024-03-02T03:54:58;19.23;;;10.30;;
6483;SDS011;3275;52.376;9.694;2024-03-02T03:57:25;22.13;;;11.33;;
6483;SDS011;3275;52.376;9.694;2024-03-02T03:59:52;15.83;;;9.17;;
6483;SDS011;3275;52.376;9.694;2024-03-02T04:02:19;19.33;;;10.53;;
6483;SDS011;3275;52.376;9.694;2024-03-02T04:04:47;20.40;;;10.53;;
6483;SDS011;3275;52.376;9.694;2024-03-02T04:07:13;22.40;;;10.40;;
6483;SDS011;3275;52.376;9.694;2024-03-02T04:09:40;21.00;;;10.67;;
6483;SDS011;3275;52.376;9.694;2024-03-02T04:12:06;19.40;;;10.70;;
6483;SDS011;3275;52.376;9.694;2024-03-02T04:14:33;18.43;;;9.47;;
6483;SDS011;3275;52.376;9.694;2024-03-02T04:16:59;19.27;;;10.73;;
6483;SDS011;3275;52.376;9.694;2024-03-02T04:19:26;25.70;;;10.90;;
6483;SDS011;3275;52.376;9.694;2024-03-02T04:21:54;20.20;;;9.80;;
6483;SDS011;3275;52.376;9.694;2024-03-02T04:24:20;17.83;;;9.57;;
6483;SDS011;3275;52.376;9.694;2024-03-02T04:26:47;22.57;;;10.70;;
6483;SDS011;3275;52.376;9.694;2024-03-02T04:29:14;18.80;;;9.90;;
6483;SDS011;3275;52.376;9.694;2024-03-02T04:31:40;22.47;;;10.10;;
6483;SDS011;3275;52.376;9.694;2024-03-02T04:34:07;19.87;;;10.17;;
6483;SDS011;3275;52.376;9.694;2024-03-02T04:36:33;20.87;;;11.13;;
6483;SDS011;3275;52.376;9.694;2024-03-02T04:39:01;19.63;;;9.90;;
6483;SDS011;3275;52.376;9.694;2024-03-02T04:41:29;22.10;;;10.93;;
6483;SDS011;3275;52.376;9.694;2024-03-02T04:43:56;20.13;;;10.67;;
6483;SDS011;3275;52.376;9.694;2024-03-02T04:46:22;18.53;;;10.70;;
6483;SDS011;3275;52.376;9.694;2024-03-02T04:48:49;18.10;;;9.30;;
6483;SDS011;3275;52.376;9.694;2024-03-02T04:51:20;24.20;;;9.80;;
6483;SDS011;3275;52.376;9.694;2024-03-02T04:53:47;16.80;;;9.67;;
6483;SDS011;3275;52.376;9.694;2024-03-02T04:56:15;21.27;;;10.47;;
6483;SDS011;3275;52.376;9.694;2024-03-02T04:59:05;21.17;;;9.80;;
6483;SDS011;3275;52.376;9.694;2024-03-02T05:01:31;24.70;;;12.13;;
6483;SDS011;3275;52.376;9.694;2024-03-02T05:03:58;20.20;;;10.07;;
6483;SDS011;3275;52.376;9.694;2024-03-02T05:06:25;18.17;;;10.20;;
6483;SDS011;3275;52.376;9.694;2024-03-02T05:08:51;19.80;;;10.33;;
6483;SDS011;3275;52.376;9.694;2024-03-02T05:11:19;19.20;;;11.30;;
6483;SDS011;3275;52.376;9.694;2024-03-02T05:14:13;17.70;;;9.37;;
6483;SDS011;3275;52.376;9.694;2024-03-02T05:16:41;17.53;;;10.30;;
6483;SDS011;3275;52.376;9.694;2024-03-02T05:19:08;22.70;;;10.93;;
6483;SDS011;3275;52.376;9.694;2024-03-02T05:21:34;24.80;;;11.30;;
6483;SDS011;3275;52.376;9.694;2024-03-02T05:24:01;20.77;;;10.77;;
6483;SDS011;3275;52.376;9.694;2024-03-02T05:26:29;23.03;;;10.80;;
6483;SDS011;3275;52.376;9.694;2024-03-02T05:28:55;25.13;;;11.07;;
6483;SDS011;3275;52.376;9.694;2024-03-02T05:31:22;20.20;;;11.20;;
6483;SDS011;3275;52.376;9.694;2024-03-02T05:33:48;22.00;;;10.50;;
6483;SDS011;3275;52.376;9.694;2024-03-02T05:36:15;21.80;;;11.43;;
6483;SDS011;3275;52.376;9.694;2024-03-02T05:38:41;23.70;;;10.57;;
6483;SDS011;3275;52.376;9.694;2024-03-02T05:41:08;21.10;;;11.00;;
6483;SDS011;3275;52.376;9.694;2024-03-02T05:43:36;24.30;;;11.03;;
6483;SDS011;3275;52.376;9.694;2024-03-02T05:46:03;28.70;;;12.50;;
6483;SDS011;3275;52.376;9.694;2024-03-02T05:48:29;21.17;;;10.37;;
6483;SDS011;3275;52.376;9.694;2024-03-02T05:50:56;25.60;;;12.30;;
6483;SDS011;3275;52.376;9.694;2024-03-02T05:53:22;20.60;;;11.20;;
6483;SDS011;3275;52.376;9.694;2024-03-02T05:55:49;26.27;;;12.10;;
6483;SDS011;3275;52.376;9.694;2024-03-02T05:58:18;27.77;;;12.93;;
6483;SDS011;3275;52.376;9.694;2024-03-02T06:00:57;24.40;;;11.60;;
6483;SDS011;3275;52.376;9.694;2024-03-02T06:03:24;28.63;;;11.90;;
6483;SDS011;3275;52.376;9.694;2024-03-02T06:05:50;23.50;;;11.80;;
6483;SDS011;3275;52.376;9.694;2024-03-02T06:08:17;27.10;;;11.83;;
6483;SDS011;3275;52.376;9.694;2024-03-02T06:10:43;21.80;;;11.57;;
6483;SDS011;3275;52.376;9.694;2024-03-02T06:13:11;23.60;;;11.53;;
6483;SDS011;3275;52.376;9.694;2024-03-02T06:15:37;22.10;;;12.07;;
6483;SDS011;3275;52.376;9.694;2024-03-02T06:18:06;27.70;;;12.07;;
6483;SDS011;3275;52.376;9.694;2024-03-02T06:20:32;22.50;;;11.07;;
6483;SDS011;3275;52.376;9.694;2024-03-02T06:23:00;22.23;;;11.27;;
6483;SDS011;3275;52.376;9.694;2024-03-02T06:25:26;23.47;;;12.20;;
6483;SDS011;3275;52.376;9.694;2024-03-02T06:27:53;22.40;;;11.50;;
6483;SDS011;3275;52.376;9.694;2024-03-02T06:30:19;25.80;;;12.10;;
6483;SDS011;3275;52.376;9.694;2024-03-02T06:32:46;26.40;;;12.00;;
6483;SDS011;3275;52.376;9.694;2024-03-02T06:35:14;26.67;;;14.03;;
6483;SDS011;3275;52.376;9.694;2024-03-02T06:37:40;28.40;;;13.17;;
6483;SDS011;3275;52.376;9.694;2024-03-02T06:40:07;26.30;;;13.67;;
6483;SDS011;3275;52.376;9.694;2024-03-02T06:42:35;27.13;;;13.30;;
6483;SDS011;3275;52.376;9.694;2024-03-02T06:45:02;34.60;;;13.30;;
6483;SDS011;3275;52.376;9.694;2024-03-02T06:47:29;26.70;;;13.73;;
6483;SDS011;3275;52.376;9.694;2024-03-02T06:49:55;21.37;;;12.37;;
6483;SDS011;3275;52.376;9.694;2024-03-02T06:52:24;30.60;;;13.73;;
6483;SDS011;3275;52.376;9.694;2024-03-02T06:54:51;27.73;;;13.70;;
6483;SDS011;3275;52.376;9.694;2024-03-02T06:57:17;24.73;;;12.60;;
6483;SDS011;3275;52.376;9.694;2024-03-02T06:59:45;28.80;;;13.87;;
6483;SDS011;3275;52.376;9.694;2024-03-02T07:02:12;27.00;;;13.13;;
6483;SDS011;3275;52.376;9.694;2024-03-02T07:04:38;27.93;;;14.20;;
6483;SDS011;3275;52.376;9.694;2024-03-02T07:07:05;27.37;;;13.97;;
6483;SDS011;3275;52.376;9.694;2024-03-02T07:09:33;25.97;;;12.60;;
6483;SDS011;3275;52.376;9.694;2024-03-02T07:12:00;25.43;;;14.27;;
6483;SDS011;3275;52.376;9.694;2024-03-02T07:14:27;27.37;;;12.80;;
6483;SDS011;3275;52.376;9.694;2024-03-02T07:17:20;28.83;;;13.93;;
6483;SDS011;3275;52.376;9.694;2024-03-02T07:19:47;32.03;;;15.00;;
6483;SDS011;3275;52.376;9.694;2024-03-02T07:22:14;21.90;;;12.60;;
6483;SDS011;3275;52.376;9.694;2024-03-02T07:24:42;24.57;;;12.97;;
6483;SDS011;3275;52.376;9.694;2024-03-02T07:27:09;24.37;;;13.23;;
6483;SDS011;3275;52.376;9.694;2024-03-02T07:29:37;26.90;;;13.83;;
6483;SDS011;3275;52.376;9.694;2024-03-02T07:32:04;25.20;;;12.63;;
6483;SDS011;3275;52.376;9.694;2024-03-02T07:34:31;26.33;;;13.23;;
6483;SDS011;3275;52.376;9.694;2024-03-02T19:36:15;19.17;;;9.53;;
6483;SDS011;3275;52.376;9.694;2024-03-02T19:38:42;21.53;;;9.47;;
6483;SDS011;3275;52.376;9.694;2024-03-02T19:41:09;13.87;;;7.70;;
6483;SDS011;3275;52.376;9.694;2024-03-02T19:43:35;16.27;;;8.20;;
6483;SDS011;3275;52.376;9.694;2024-03-02T19:46:02;18.07;;;9.13;;
6483;SDS011;3275;52.376;9.694;2024-03-02T19:48:29;18.60;;;9.60;;
6483;SDS011;3275;52.376;9.694;2024-03-02T19:50:56;48.63;;;17.30;;
6483;SDS011;3275;52.376;9.694;2024-03-02T19:53:24;31.73;;;13.87;;
6483;SDS011;3275;52.376;9.694;2024-03-02T19:55:51;39.37;;;18.90;;
6483;SDS011;3275;52.376;9.694;2024-03-02T19:58:17;31.73;;;11.73;;
6483;SDS011;3275;52.376;9.694;2024-03-02T20:00:44;18.33;;;9.37;;
6483;SDS011;3275;52.376;9.694;2024-03-02T20:03:11;12.37;;;7.97;;
6483;SDS011;3275;52.376;9.694;2024-03-02T20:05:39;15.57;;;8.60;;
6483;SDS011;3275;52.376;9.694;2024-03-02T20:08:05;17.63;;;8.30;;
6483;SDS011;3275;52.376;9.694;2024-03-02T20:10:34;15.03;;;8.07;;
6483;SDS011;3275;52.376;9.694;2024-03-02T20:13:01;14.97;;;8.30;;
6483;SDS011;3275;52.376;9.694;2024-03-02T20:15:30;15.40;;;8.37;;
6483;SDS011;3275;52.376;9.694;2024-03-02T20:17:57;15.40;;;8.60;;
6483;SDS011;3275;52.376;9.694;2024-03-02T20:20:24;18.20;;;8.40;;
6483;SDS011;3275;52.376;9.694;2024-03-02T20:22:50;15.53;;;8.53;;
6483;SDS011;3275;52.376;9.694;2024-03-02T20:25:17;21.53;;;10.67;;
6483;SDS011;3275;52.376;9.694;2024-03-02T20:27:45;40.67;;;16.63;;
6483;SDS011;3275;52.376;9.694;2024-03-02T20:30:12;31.57;;;14.00;;
6483;SDS011;3275;52.376;9.694;2024-03-02T20:32:40;20.93;;;11.13;;
6483;SDS011;3275;52.376;9.694;2024-03-02T20:35:07;18.33;;;9.37;;
6483;SDS011;3275;52.376;9.694;2024-03-02T20:37:35;18.03;;;8.57;;
6483;SDS011;3275;52.376;9.694;2024-03-02T20:40:01;18.93;;;9.10;;
6483;SDS011;3275;52.376;9.694;2024-03-02T20:42:28;17.67;;;9.70;;
6483;SDS011;3275;52.376;9.694;2024-03-02T20:44:56;20.70;;;8.77;;
6483;SDS011;3275;52.376;9.694;2024-03-02T20:47:24;17.00;;;9.90;;
6483;SDS011;3275;52.376;9.694;2024-03-02T20:49:50;19.63;;;9.10;;
6483;SDS011;3275;52.376;9.694;2024-03-02T20:52:17;24.37;;;10.70;;
6483;SDS011;3275;52.376;9.694;2024-03-02T20:54:44;20.70;;;9.77;;
6483;SDS011;3275;52.376;9.694;2024-03-02T20:57:11;21.53;;;9.87;;
6483;SDS011;3275;52.376;9.694;2024-03-02T20:59:38;17.57;;;9.10;;
6483;SDS011;3275;52.376;9.694;2024-03-02T21:02:06;19.70;;;9.60;;
6483;SDS011;3275;52.376;9.694;2024-03-02T21:04:33;18.63;;;9.53;;
6483;SDS011;3275;52.376;9.694;2024-03-02T21:07:00;23.30;;;10.10;;
6483;SDS011;3275;52.376;9.694;2024-03-02T21:09:27;21.70;;;10.67;;
6483;SDS011;3275;52.376;9.694;2024-03-02T21:11:54;19.57;;;10.10;;
6483;SDS011;3275;52.376;9.694;2024-03-02T21:14:21;23.43;;;11.00;;
6483;SDS011;3275;52.376;9.694;2024-03-02T21:16:48;19.50;;;9.77;;
6483;SDS011;3275;52.376;9.694;2024-03-02T21:19:16;21.90;;;11.20;;
6483;SDS011;3275;52.376;9.694;2024-03-02T21:21:43;22.97;;;10.73;;
6483;SDS011;3275;52.376;9.694;2024-03-02T21:24:10;22.00;;;10.80;;
6483;SDS011;3275;52.376;9.694;2024-03-02T21:26:37;23.83;;;11.97;;
6483;SDS011;3275;52.376;9.694;2024-03-02T21:29:05;32.30;;;10.67;;
6483;SDS011;3275;52.376;9.694;2024-03-02T21:31:32;21.80;;;11.10;;
6483;SDS011;3275;52.376;9.694;2024-03-02T21:33:59;24.07;;;11.17;;
6483;SDS011;3275;52.376;9.694;2024-03-02T21:36:27;21.13;;;10.80;;
6483;SDS011;3275;52.376;9.694;2024-03-02T21:38:53;23.40;;;11.17;;
6483;SDS011;3275;52.376;9.694;2024-03-02T21:41:20;19.67;;;10.33;;
6483;SDS011;3275;52.376;9.694;2024-03-02T21:43:47;27.93;;;12.10;;
6483;SDS011;3275;52.376;9.694;2024-03-02T21:46:14;22.03;;;11.20;;
6483;SDS011;3275;52.376;9.694;2024-03-02T21:48:41;20.40;;;10.10;;
6483;SDS011;3275;52.376;9.694;2024-03-02T21:51:07;21.47;;;10.93;;
6483;SDS011;3275;52.376;9.694;2024-03-02T21:53:36;19.03;;;10.10;;
6483;SDS011;3275;52.376;9.694;2024-03-02T21:56:03;20.80;;;10.80;;
6483;SDS011;3275;52.376;9.694;2024-03-02T21:58:30;19.70;;;11.70;;
6483;SDS011;3275;52.376;9.694;2024-03-02T22:00:57;20.37;;;12.10;;
6483;SDS011;3275;52.376;9.694;2024-03-02T22:03:23;21.90;;;12.00;;
6483;SDS011;3275;52.376;9.694;2024-03-02T22:05:50;19.70;;;11.10;;
6483;SDS011;3275;52.376;9.694;2024-03-02T22:08:17;19.33;;;9.70;;
6483;SDS011;3275;52.376;9.694;2024-03-02T22:10:45;20.53;;;10.73;;
6483;SDS011;3275;52.376;9.694;2024-03-02T22:13:12;20.53;;;10.47;;
6483;SDS011;3275;52.376;9.694;2024-03-02T22:15:38;20.60;;;10.43;;
6483;SDS011;3275;52.376;9.694;2024-03-02T22:18:05;18.43;;;9.83;;
6483;SDS011;3275;52.376;9.694;2024-03-02T22:20:31;17.87;;;9.57;;
6483;SDS011;3275;52.376;9.694;2024-03-02T22:22:58;19.03;;;10.97;;
6483;SDS011;3275;52.376;9.694;2024-03-02T22:25:25;21.00;;;10.73;;
6483;SDS011;3275;52.376;9.694;2024-03-02T22:27:53;19.03;;;10.13;;
6483;SDS011;3275;52.376;9.694;2024-03-02T22:30:20;19.20;;;10.37;;
6483;SDS011;3275;52.376;9.694;2024-03-02T22:32:48;21.30;;;9.97;;
6483;SDS011;3275;52.376;9.694;2024-03-02T22:35:14;18.97;;;9.47;;
6483;SDS011;3275;52.376;9.694;2024-03-02T22:37:41;21.47;;;9.60;;
6483;SDS011;3275;52.376;9.694;2024-03-02T22:40:08;18.53;;;9.83;;
6483;SDS011;3275;52.376;9.694;2024-03-02T22:42:35;19.43;;;9.67;;
6483;SDS011;3275;52.376;9.694;2024-03-02T22:45:04;17.47;;;9.13;;
6483;SDS011;3275;52.376;9.694;2024-03-02T22:47:31;20.83;;;10.30;;
6483;SDS011;3275;52.376;9.694;2024-03-02T22:49:59;18.67;;;9.00;;
6483;SDS011;3275;52.376;9.694;2024-03-02T22:52:26;21.10;;;10.00;;
6483;SDS011;3275;52.376;9.694;2024-03-02T22:54:52;21.80;;;9.77;;
6483;SDS011;3275;52.376;9.694;2024-03-02T22:57:19;20.00;;;9.70;;
6483;SDS011;3275;52.376;9.694;2024-03-02T22:59:47;17.83;;;9.50;;
6483;SDS011;3275;52.376;9.694;2024-03-02T23:02:15;17.87;;;9.10;;
6483;SDS011;3275;52.376;9.694;2024-03-02T23:04:42;23.73;;;10.50;;
6483;SDS011;3275;52.376;9.694;2024-03-02T23:07:09;17.33;;;9.43;;
6483;SDS011;3275;52.376;9.694;2024-03-02T23:09:36;18.93;;;10.10;;
6483;SDS011;3275;52.376;9.694;2024-03-02T23:12:02;18.47;;;9.87;;
6483;SDS011;3275;52.376;9.694;2024-03-02T23:14:29;20.30;;;10.10;;
6483;SDS011;3275;52.376;9.694;2024-03-02T23:16:56;16.60;;;9.60;;
6483;SDS011;3275;52.376;9.694;2024-03-02T23:19:24;19.70;;;10.23;;
6483;SDS011;3275;52.376;9.694;2024-03-02T23:21:51;19.27;;;10.13;;
6483;SDS011;3275;52.376;9.694;2024-03-02T23:24:17;16.50;;;8.90;;
6483;SDS011;3275;52.376;9.694;2024-03-02T23:26:44;15.97;;;9.80;;
6483;SDS011;3275;52.376;9.694;2024-03-02T23:29:11;17.77;;;11.03;;
6483;SDS011;3275;52.376;9.694;2024-03-02T23:31:37;19.37;;;9.70;;
6483;SDS011;3275;52.376;9.694;2024-03-02T23:34:04;22.77;;;11.73;;
6483;SDS011;3275;52.376;9.694;2024-03-02T23:36:32;18.23;;;9.57;;
6483;SDS011;3275;52.376;9.694;2024-03-02T23:38:59;24.60;;;11.13;;
6483;SDS011;3275;52.376;9.694;2024-03-02T23:41:29;18.00;;;10.47;;
6483;SDS011;3275;52.376;9.694;2024-03-02T23:43:55;18.60;;;10.30;;
6483;SDS011;3275;52.376;9.694;2024-03-02T23:46:24;19.47;;;10.30;;
6483;SDS011;3275;52.376;9.694;2024-03-02T23:48:51;21.97;;;11.10;;
6483;SDS011;3275;52.376;9.694;2024-03-02T23:51:17;18.53;;;9.67;;
6483;SDS011;3275;52.376;9.694;2024-03-02T23:53:45;19.37;;;10.23;;
6483;SDS011;3275;52.376;9.694;2024-03-02T23:56:12;21.37;;;12.07;;
6483;SDS011;3275;52.376;9.694;2024-03-02T23:58:40;21.20;;;11.40;;
